Current Weather

Murmansk

Murmansk, Russia (ULMM)

Report from: Thursday, April 25, 2024 8:30 AM MSK
Current time: Thursday, April 25, 2024 8:48 AM MSK

Nearby weather – Weather history – Daily summaries
Weather forecast

Temperature1.0°C (33.8°F)
Wind chill-2.3°C (27.9°F)
Dew point-0.0°C (32.0°F)
Winds 5.8 kts (3 m/s, 6.7 mph) South-Southeast (150°)
Visibility6.2 mi. (10 km)
Clouds Ceiling: Broken clouds 1,900 ft. (579 m)
Altimeter29.97 in.Hg (1015 mB)
Precip. events QF 7:35 PM
Relative humidity93 %
Density altitude-1,675 ft. (-511 m)
Remarks No significant changes expected in the next two hours
Flight conditions Marginal Visual Meteorological Conditions
Raw dataULMM 250530Z 15003MPS 9999 BKN019 01/M00 Q1015 R13/290153 NOSIG RMK QFE755
An error has occurred. This application may no longer respond until reloaded. Reload 🗙